Terminal Aerodrome Forecast
Issued by NWS

Home | Current Version | Previous Version | Text Only | Print | Product List | Glossary On
Versions: 1 2 3 4 5 6 7 8 9 10 11 12 13 14 15 16 17 18 19 20
702
FTUS43 KLSX 102336
TAFSUS
TAF
KSUS 102336Z 1100/1124 00000KT P6SM -SN OVC060
     FM110100 00000KT P6SM OVC060
     FM110400 08005KT P6SM OVC035
     FM111800 02004KT P6SM SCT200=

USA.gov is the U.S. government's official web portal to all federal, state and local government web resources and services.